createdAt,value
2022-10-12T00:02:09.170Z,96.34
2022-10-12T00:04:35.588Z,96.08
2022-10-12T00:07:01.946Z,95.82
2022-10-12T00:09:28.364Z,95.23
2022-10-12T00:11:54.737Z,95.03
2022-10-12T00:14:21.140Z,94.88
2022-10-12T00:16:47.524Z,94.56
2022-10-12T00:19:14.314Z,94.38
2022-10-12T00:21:40.697Z,93.97
2022-10-12T00:24:07.250Z,93.75
2022-10-12T00:26:34.018Z,93.85
2022-10-12T00:29:01.512Z,92.95
2022-10-12T00:31:28.391Z,92.76
2022-10-12T00:33:55.237Z,92.77
2022-10-12T00:36:26.187Z,92.77
2022-10-12T00:38:55.160Z,92.63
2022-10-12T00:41:23.073Z,92.46
2022-10-12T00:43:52.845Z,92.79
2022-10-12T00:46:26.147Z,92.71
2022-10-12T00:48:55.079Z,92.67
2022-10-12T00:51:22.566Z,92.59
2022-10-12T00:54:02.210Z,92.59
2022-10-12T00:56:31.776Z,92.02
2022-10-12T00:59:00.094Z,92.04
2022-10-12T01:01:27.221Z,91.92
2022-10-12T01:03:53.745Z,91.87
2022-10-12T01:06:20.293Z,91.22
2022-10-12T01:08:46.951Z,91.54
2022-10-12T01:11:13.315Z,91.74
2022-10-12T01:13:39.888Z,91.62
2022-10-12T01:16:06.637Z,90.82
2022-10-12T01:18:42.336Z,91.05
2022-10-12T01:21:18.366Z,91.31
2022-10-12T01:24:03.536Z,91.13
2022-10-12T01:26:29.985Z,90.16
2022-10-12T01:29:02.534Z,90.40
2022-10-12T01:31:36.029Z,90.43
2022-10-12T01:34:22.668Z,90.64
2022-10-12T01:36:51.986Z,90.46
2022-10-12T01:39:24.994Z,89.96
2022-10-12T01:41:54.743Z,89.72
2022-10-12T01:44:21.733Z,89.88
2022-10-12T01:46:48.252Z,90.32
2022-10-12T01:49:17.883Z,89.91
2022-10-12T01:52:02.560Z,89.67
2022-10-12T01:54:37.936Z,89.70
2022-10-12T01:57:26.783Z,89.22
2022-10-12T02:00:05.676Z,89.02
2022-10-12T02:02:41.504Z,89.07
2022-10-12T02:05:14.638Z,88.94
2022-10-12T02:07:42.712Z,89.26
2022-10-12T02:10:13.659Z,89.18
2022-10-12T02:12:42.302Z,89.09
2022-10-12T02:15:10.783Z,89.05
2022-10-12T02:17:40.958Z,88.71
2022-10-12T02:20:10.524Z,88.83
2022-10-12T02:22:37.346Z,89.68
2022-10-12T02:25:05.277Z,89.43
2022-10-12T02:27:33.071Z,88.74
2022-10-12T02:29:59.457Z,88.44
2022-10-12T02:32:35.482Z,88.87
2022-10-12T02:35:07.943Z,89.31
2022-10-12T02:37:43.287Z,88.48
2022-10-12T02:40:15.688Z,88.18
2022-10-12T02:43:08.931Z,88.31
2022-10-12T02:45:34.536Z,88.74
2022-10-12T02:48:01.059Z,88.13
2022-10-12T02:50:28.385Z,88.23
2022-10-12T02:52:54.976Z,88.48
2022-10-12T02:55:21.410Z,88.92
2022-10-12T02:57:47.820Z,88.88
2022-10-12T03:00:14.530Z,88.43
2022-10-12T03:02:40.902Z,88.57
2022-10-12T03:05:07.492Z,88.36
2022-10-12T03:07:33.877Z,88.79
2022-10-12T03:10:00.250Z,88.79
2022-10-12T03:12:26.664Z,88.56
2022-10-12T03:14:53.020Z,88.37
2022-10-12T03:17:19.404Z,88.41
2022-10-12T03:19:45.859Z,87.99
2022-10-12T03:22:12.233Z,88.24
2022-10-12T03:24:38.589Z,88.48
2022-10-12T03:27:05.012Z,88.67
2022-10-12T03:29:31.375Z,88.38
2022-10-12T03:31:57.752Z,88.50
2022-10-12T03:34:24.186Z,88.48
2022-10-12T03:36:50.543Z,88.50
2022-10-12T03:39:16.921Z,88.42
2022-10-12T03:41:43.305Z,88.56
2022-10-12T03:44:09.680Z,88.96
2022-10-12T03:46:36.084Z,89.11
2022-10-12T03:49:02.496Z,88.53
2022-10-12T03:51:28.957Z,88.18
2022-10-12T03:53:55.323Z,88.57
2022-10-12T03:56:21.751Z,89.00
2022-10-12T03:58:48.166Z,88.63
2022-10-12T04:01:14.594Z,88.38
2022-10-12T04:03:41.012Z,88.34
2022-10-12T04:06:07.460Z,88.32
2022-10-12T04:08:33.845Z,88.38
2022-10-12T04:11:00.198Z,88.31
2022-10-12T04:13:26.567Z,88.35
2022-10-12T04:15:52.987Z,88.50
2022-10-12T04:18:19.430Z,87.94
2022-10-12T04:20:49.325Z,88.40
2022-10-12T04:23:16.023Z,88.18
2022-10-12T04:25:42.458Z,88.40
2022-10-12T04:28:09.105Z,88.27
2022-10-12T04:30:35.583Z,87.78
2022-10-12T04:33:01.948Z,87.76
2022-10-12T04:35:28.666Z,87.93
2022-10-12T04:37:55.025Z,88.04
2022-10-12T04:40:21.389Z,88.15
2022-10-12T04:42:47.757Z,87.80
2022-10-12T04:45:14.278Z,88.29
2022-10-12T04:47:40.860Z,88.18
2022-10-12T04:50:07.758Z,88.14
2022-10-12T04:52:34.147Z,88.24
2022-10-12T04:55:00.594Z,87.93
2022-10-12T04:57:26.959Z,87.97
2022-10-12T04:59:53.313Z,88.35
2022-10-12T05:02:19.675Z,88.07
2022-10-12T05:04:46.048Z,87.86
2022-10-12T05:07:12.404Z,88.27
2022-10-12T05:09:38.862Z,88.27
2022-10-12T05:12:05.607Z,88.48
2022-10-12T05:14:36.039Z,88.51
2022-10-12T05:17:02.627Z,88.48
2022-10-12T05:19:29.007Z,89.06
2022-10-12T05:21:55.739Z,89.33
2022-10-12T05:24:22.112Z,88.99
2022-10-12T05:26:48.523Z,88.51
2022-10-12T05:29:14.882Z,88.38
2022-10-12T05:31:41.329Z,88.75
2022-10-12T05:34:07.719Z,88.78
2022-10-12T05:36:34.093Z,88.81
2022-10-12T05:39:00.567Z,89.10
2022-10-12T05:41:26.958Z,88.80
2022-10-12T05:43:53.702Z,88.92
2022-10-12T05:46:20.114Z,88.99
2022-10-12T05:48:46.499Z,89.35
2022-10-12T05:51:12.845Z,89.44
2022-10-12T05:53:39.273Z,89.46
2022-10-12T05:56:05.908Z,89.95
2022-10-12T05:58:32.390Z,89.99
2022-10-12T06:01:09.245Z,90.21
2022-10-12T06:03:35.746Z,90.27
2022-10-12T06:06:02.413Z,90.41
2022-10-12T06:08:29.202Z,90.71
2022-10-12T06:10:55.560Z,90.52
2022-10-12T06:13:22.032Z,90.61
2022-10-12T06:15:49.075Z,90.22
2022-10-12T06:18:16.145Z,90.59
2022-10-12T06:20:46.450Z,91.34
2022-10-12T06:23:12.937Z,91.26
2022-10-12T06:25:39.350Z,91.37
2022-10-12T06:28:05.723Z,91.25
2022-10-12T06:30:32.140Z,91.30
2022-10-12T06:32:58.586Z,91.36
2022-10-12T06:35:24.997Z,91.59
2022-10-12T06:37:51.834Z,92.00
2022-10-12T06:40:18.917Z,91.76
2022-10-12T06:42:45.378Z,91.70
2022-10-12T06:45:12.052Z,91.96
2022-10-12T06:47:38.472Z,92.09
2022-10-12T06:50:05.073Z,91.96
2022-10-12T06:52:31.788Z,92.33
2022-10-12T06:54:58.161Z,92.31
2022-10-12T06:57:24.605Z,92.50
2022-10-12T06:59:51.007Z,92.40
2022-10-12T07:02:17.411Z,92.49
2022-10-12T07:04:43.790Z,92.52
2022-10-12T07:07:10.293Z,92.45
2022-10-12T07:09:36.678Z,92.45
2022-10-12T07:12:03.062Z,92.66
2022-10-12T07:14:29.418Z,92.87
2022-10-12T07:16:55.798Z,93.28
2022-10-12T07:19:22.228Z,93.73
2022-10-12T07:21:48.655Z,94.26
2022-10-12T07:24:15.029Z,94.30
2022-10-12T07:26:41.424Z,94.50
2022-10-12T07:29:07.886Z,95.10
2022-10-12T07:31:34.286Z,95.35
2022-10-12T07:34:00.647Z,95.64
2022-10-12T07:36:40.962Z,95.78
2022-10-12T07:39:13.461Z,95.93
2022-10-12T07:41:39.853Z,96.62
2022-10-12T07:44:06.310Z,96.30
2022-10-12T07:46:32.711Z,96.53
2022-10-12T07:48:59.256Z,96.57
2022-10-12T07:51:25.688Z,96.81
2022-10-12T07:53:52.062Z,97.34
2022-10-12T07:56:18.570Z,97.62
2022-10-12T07:58:52.498Z,97.61
2022-10-12T08:01:20.079Z,98.28
2022-10-12T08:03:46.823Z,98.81
2022-10-12T08:06:23.834Z,98.95
2022-10-12T08:08:50.752Z,99.32
2022-10-12T08:11:18.227Z,99.54
2022-10-12T08:13:44.889Z,100.00
2022-10-12T08:16:13.101Z,100.00
2022-10-12T08:18:39.554Z,100.00
2022-10-12T08:21:06.650Z,100.00
2022-10-12T08:23:34.284Z,100.00
2022-10-12T08:26:00.671Z,100.00
2022-10-12T08:28:27.169Z,100.00
2022-10-12T08:30:53.598Z,100.00
2022-10-12T08:33:20.346Z,100.00
2022-10-12T08:35:47.851Z,100.00
2022-10-12T08:38:14.712Z,100.00
2022-10-12T08:40:49.526Z,100.00
2022-10-12T08:43:25.200Z,100.00
2022-10-12T08:45:51.567Z,100.00
2022-10-12T08:48:26.318Z,100.00
2022-10-12T08:50:54.890Z,100.00
2022-10-12T08:53:23.573Z,100.00
2022-10-12T08:55:50.096Z,100.00
2022-10-12T08:58:17.757Z,100.00
2022-10-12T09:00:47.234Z,100.00
2022-10-12T09:03:23.585Z,100.00
2022-10-12T09:05:54.354Z,100.00
2022-10-12T09:08:20.733Z,100.00
2022-10-12T09:10:53.384Z,100.00
2022-10-12T09:13:19.851Z,100.00
2022-10-12T09:15:52.887Z,100.00
2022-10-12T09:18:29.911Z,100.00
2022-10-12T09:20:56.996Z,99.11
2022-10-12T09:23:27.501Z,97.45
2022-10-12T09:25:56.932Z,97.29
2022-10-12T09:28:28.494Z,94.77
2022-10-12T09:31:05.669Z,91.40
2022-10-12T09:33:35.666Z,90.11
2022-10-12T09:36:02.089Z,91.51
2022-10-12T09:38:28.495Z,88.90
2022-10-12T09:40:54.870Z,88.17
2022-10-12T09:43:21.361Z,88.79
2022-10-12T09:45:47.992Z,88.47
2022-10-12T09:48:14.371Z,85.47
2022-10-12T09:51:00.415Z,86.46
2022-10-12T09:53:29.559Z,84.27
2022-10-12T09:56:13.281Z,83.35
2022-10-12T09:58:49.474Z,78.07
2022-10-12T10:01:19.460Z,76.40
2022-10-12T10:03:47.464Z,76.53
2022-10-12T10:06:15.562Z,78.19
2022-10-12T10:08:43.399Z,76.21
2022-10-12T10:11:18.913Z,75.78
2022-10-12T10:13:50.163Z,75.49
2022-10-12T10:16:17.014Z,74.54
2022-10-12T10:18:55.576Z,72.46
2022-10-12T10:21:27.116Z,71.60
2022-10-12T10:23:55.412Z,72.30
2022-10-12T10:26:22.771Z,70.75
2022-10-12T10:28:50.431Z,71.21
2022-10-12T10:31:21.970Z,68.60
2022-10-12T10:34:07.155Z,69.74
2022-10-12T10:36:35.997Z,67.32
2022-10-12T10:39:05.506Z,69.31
2022-10-12T10:41:40.104Z,69.97
2022-10-12T10:44:21.734Z,69.10
2022-10-12T10:46:48.526Z,69.81
2022-10-12T10:49:26.275Z,69.06
2022-10-12T10:51:53.993Z,68.73
2022-10-12T10:54:23.244Z,68.23
2022-10-12T10:56:55.413Z,68.57
2022-10-12T10:59:27.515Z,68.60
2022-10-12T11:02:03.407Z,67.91
2022-10-12T11:04:32.381Z,67.85
2022-10-12T11:07:03.342Z,66.93
2022-10-12T11:09:35.827Z,68.12
2022-10-12T11:12:12.636Z,66.60
2022-10-12T11:14:43.003Z,66.27
2022-10-12T11:17:35.547Z,67.57
2022-10-12T11:20:06.333Z,66.59
2022-10-12T11:22:32.689Z,64.93
2022-10-12T11:25:03.512Z,65.81
2022-10-12T11:27:36.382Z,66.36
2022-10-12T11:30:10.052Z,64.60
2022-10-12T11:32:39.076Z,64.17
2022-10-12T11:35:07.052Z,62.99
2022-10-12T11:37:39.744Z,61.87
2022-10-12T11:40:08.919Z,62.45
2022-10-12T11:42:43.197Z,60.58
2022-10-12T11:45:18.630Z,61.70
2022-10-12T11:47:47.508Z,61.31
2022-10-12T11:50:20.084Z,61.71
2022-10-12T11:52:49.202Z,63.05
2022-10-12T11:55:15.578Z,60.75
2022-10-12T11:57:42.011Z,63.16
2022-10-12T12:00:19.473Z,62.63
2022-10-12T12:02:49.458Z,61.57
2022-10-12T12:05:17.176Z,62.50
2022-10-12T12:07:56.732Z,62.25
2022-10-12T12:10:26.459Z,61.72
2022-10-12T12:13:20.506Z,59.42
2022-10-12T12:15:46.888Z,58.66
2022-10-12T12:18:15.934Z,60.03
2022-10-12T12:20:42.583Z,61.41
2022-10-12T12:23:24.279Z,62.79
2022-10-12T12:26:05.871Z,63.63
2022-10-12T12:28:32.860Z,63.09
2022-10-12T12:31:01.226Z,59.51
2022-10-12T12:33:41.927Z,59.43
2022-10-12T12:36:08.530Z,62.03
2022-10-12T12:38:34.987Z,61.51
2022-10-12T12:41:12.233Z,63.24
2022-10-12T12:43:50.318Z,62.92
2022-10-12T12:46:17.047Z,61.85
2022-10-12T12:48:43.381Z,62.41
2022-10-12T12:51:10.938Z,62.92
2022-10-12T12:53:38.895Z,61.90
2022-10-12T12:56:06.117Z,61.35
2022-10-12T12:58:39.422Z,61.31
2022-10-12T13:01:24.408Z,61.20
2022-10-12T13:04:09.374Z,60.13
2022-10-12T13:06:38.918Z,59.81
2022-10-12T13:09:31.656Z,61.52
2022-10-12T13:12:01.034Z,61.30
2022-10-12T13:14:36.511Z,60.65
2022-10-12T13:17:32.230Z,60.80
2022-10-12T13:20:00.615Z,60.50
2022-10-12T13:22:29.507Z,60.98
2022-10-12T13:25:00.663Z,60.90
2022-10-12T13:27:33.255Z,60.92
2022-10-12T13:30:04.436Z,61.31
2022-10-12T13:32:50.074Z,61.35
2022-10-12T13:35:42.608Z,62.70
2022-10-12T13:38:15.146Z,62.28
2022-10-12T13:40:43.353Z,61.70
2022-10-12T13:43:19.036Z,61.15
2022-10-12T13:45:46.385Z,60.83
2022-10-12T13:48:29.366Z,60.66
2022-10-12T13:51:04.597Z,61.16
2022-10-12T13:53:36.323Z,60.96
2022-10-12T13:56:05.904Z,61.11
2022-10-12T13:58:33.839Z,60.57
2022-10-12T14:01:00.406Z,60.80
2022-10-12T14:03:27.652Z,61.63
2022-10-12T14:05:56.388Z,62.38
2022-10-12T14:08:25.982Z,63.40
2022-10-12T14:10:53.342Z,63.57
2022-10-12T14:13:26.046Z,63.94
2022-10-12T14:15:52.608Z,63.75
2022-10-12T14:18:35.042Z,62.98
2022-10-12T14:21:06.222Z,63.60
2022-10-12T14:23:32.641Z,62.87
2022-10-12T14:25:59.019Z,63.81
2022-10-12T14:28:35.426Z,64.08
2022-10-12T14:31:02.002Z,64.25
2022-10-12T14:33:29.225Z,65.03
2022-10-12T14:36:15.319Z,65.70
2022-10-12T14:38:41.713Z,65.90
2022-10-12T14:41:26.977Z,66.25
2022-10-12T14:44:12.198Z,66.14
2022-10-12T14:46:40.649Z,66.41
2022-10-12T14:49:10.643Z,66.69
2022-10-12T14:51:37.064Z,66.98
2022-10-12T14:54:04.503Z,67.21
2022-10-12T14:56:30.931Z,67.68
2022-10-12T14:58:57.304Z,68.16
2022-10-12T15:01:23.814Z,68.38
2022-10-12T15:03:50.264Z,68.84
2022-10-12T15:06:16.987Z,68.52
2022-10-12T15:08:43.528Z,69.15
2022-10-12T15:11:13.337Z,69.04
2022-10-12T15:13:40.248Z,69.30
2022-10-12T15:16:16.059Z,69.05
2022-10-12T15:18:42.452Z,69.59
2022-10-12T15:21:09.006Z,69.89
2022-10-12T15:23:35.393Z,70.20
2022-10-12T15:26:01.763Z,70.09
2022-10-12T15:28:29.890Z,91.02
2022-10-12T15:31:16.907Z,85.16
2022-10-12T15:33:44.561Z,83.80
2022-10-12T15:36:11.033Z,82.70
2022-10-12T15:38:37.502Z,81.51
2022-10-12T15:41:04.087Z,81.15
2022-10-12T15:43:31.436Z,81.54
2022-10-12T15:45:58.523Z,80.44
2022-10-12T15:48:24.949Z,79.64
2022-10-12T15:50:51.537Z,79.95
2022-10-12T15:53:20.952Z,78.92
2022-10-12T15:55:47.408Z,79.44
2022-10-12T15:58:13.870Z,78.15
2022-10-12T16:00:40.313Z,78.47
2022-10-12T16:03:06.721Z,78.44
2022-10-12T16:05:36.903Z,78.08
2022-10-12T16:08:04.541Z,78.08
2022-10-12T16:10:36.914Z,78.29
2022-10-12T16:13:04.311Z,78.64
2022-10-12T16:15:33.344Z,78.11
2022-10-12T16:18:00.450Z,78.21
2022-10-12T16:20:27.688Z,77.54
2022-10-12T16:22:54.080Z,77.97
2022-10-12T16:25:23.827Z,77.95
2022-10-12T16:27:51.154Z,77.54
2022-10-12T16:30:17.592Z,78.05
2022-10-12T16:32:44.006Z,78.22
2022-10-12T16:35:11.618Z,78.71
2022-10-12T16:37:38.128Z,78.30
2022-10-12T16:40:05.336Z,78.30
2022-10-12T16:42:31.763Z,78.19
2022-10-12T16:44:58.211Z,78.21
2022-10-12T16:47:25.585Z,78.23
2022-10-12T16:49:53.798Z,78.80
2022-10-12T16:52:24.268Z,78.10
2022-10-12T16:54:54.517Z,78.83
2022-10-12T16:57:21.381Z,78.73
2022-10-12T16:59:48.284Z,79.03
2022-10-12T17:02:16.031Z,78.99
2022-10-12T17:04:42.713Z,78.86
2022-10-12T17:07:09.185Z,78.45
2022-10-12T17:09:35.663Z,78.25
2022-10-12T17:12:02.208Z,79.08
2022-10-12T17:14:29.670Z,79.33
2022-10-12T17:16:57.524Z,79.25
2022-10-12T17:19:25.360Z,79.32
2022-10-12T17:21:52.591Z,79.24
2022-10-12T17:24:19.975Z,79.84
2022-10-12T17:26:47.119Z,79.85
2022-10-12T17:29:14.538Z,79.13
2022-10-12T17:31:41.135Z,79.20
2022-10-12T17:34:07.660Z,79.61
2022-10-12T17:36:34.844Z,79.42
2022-10-12T17:39:01.546Z,79.69
2022-10-12T17:41:28.673Z,79.68
2022-10-12T17:43:55.061Z,79.31
2022-10-12T17:46:22.714Z,79.56
2022-10-12T17:48:49.353Z,79.24
2022-10-12T17:51:16.238Z,79.85
2022-10-12T17:53:42.768Z,79.43
2022-10-12T17:56:11.795Z,80.35
2022-10-12T17:58:38.332Z,79.68
2022-10-12T18:01:09.297Z,80.37
2022-10-12T18:03:35.825Z,80.09
2022-10-12T18:06:06.406Z,80.20
2022-10-12T18:08:32.932Z,80.07
2022-10-12T18:10:59.926Z,80.31
2022-10-12T18:13:26.711Z,80.51
2022-10-12T18:15:53.594Z,80.29
2022-10-12T18:18:19.959Z,80.88
2022-10-12T18:20:46.364Z,80.55
2022-10-12T18:23:13.017Z,81.06
2022-10-12T18:25:40.142Z,80.91
2022-10-12T18:28:07.455Z,81.06
2022-10-12T18:30:34.235Z,81.19
2022-10-12T18:33:00.749Z,81.35
2022-10-12T18:35:27.621Z,81.36
2022-10-12T18:37:54.047Z,81.33
2022-10-12T18:40:20.470Z,81.12
2022-10-12T18:42:47.051Z,81.06
2022-10-12T18:45:13.855Z,81.20
2022-10-12T18:47:40.267Z,81.36
2022-10-12T18:50:07.246Z,81.37
2022-10-12T18:52:34.041Z,81.19
2022-10-12T18:55:00.456Z,81.48
2022-10-12T18:57:31.111Z,81.86
2022-10-12T18:59:58.610Z,81.88
2022-10-12T19:02:25.030Z,81.42
2022-10-12T19:04:51.410Z,81.86
2022-10-12T19:07:17.841Z,81.86
2022-10-12T19:09:44.262Z,81.69
2022-10-12T19:12:11.093Z,81.62
2022-10-12T19:14:37.544Z,81.78
2022-10-12T19:17:03.935Z,81.98
2022-10-12T19:19:32.238Z,81.98
2022-10-12T19:21:58.628Z,81.66
2022-10-12T19:24:25.194Z,82.09
2022-10-12T19:26:51.950Z,82.01
2022-10-12T19:29:18.383Z,82.39
2022-10-12T19:31:46.691Z,82.48
2022-10-12T19:34:13.967Z,82.28
2022-10-12T19:36:40.476Z,82.01
2022-10-12T19:39:12.116Z,82.14
2022-10-12T19:41:38.866Z,82.48
2022-10-12T19:44:05.596Z,82.67
2022-10-12T19:46:32.407Z,82.63
2022-10-12T19:48:59.286Z,82.65
2022-10-12T19:51:26.920Z,82.35
2022-10-12T19:53:57.520Z,82.52
2022-10-12T19:56:24.397Z,82.91
2022-10-12T19:58:51.573Z,83.55
2022-10-12T20:01:19.937Z,83.06
2022-10-12T20:03:48.047Z,83.08
2022-10-12T20:06:14.699Z,83.19
2022-10-12T20:08:41.718Z,82.91
2022-10-12T20:11:08.736Z,82.89
2022-10-12T20:13:35.163Z,83.04
2022-10-12T20:16:01.891Z,82.88
2022-10-12T20:18:28.807Z,82.84
2022-10-12T20:20:55.591Z,83.12
2022-10-12T20:23:22.588Z,83.15
2022-10-12T20:25:50.596Z,83.70
2022-10-12T20:28:17.546Z,83.44
2022-10-12T20:30:44.257Z,83.15
2022-10-12T20:33:10.835Z,83.34
2022-10-12T20:35:37.283Z,83.00
2022-10-12T20:38:03.964Z,83.49
2022-10-12T20:40:30.357Z,83.14
2022-10-12T20:42:56.885Z,83.27
2022-10-12T20:45:23.264Z,83.20
2022-10-12T20:47:49.680Z,83.38
2022-10-12T20:50:16.223Z,83.58
2022-10-12T20:52:43.203Z,83.34
2022-10-12T20:55:10.606Z,83.11
2022-10-12T20:57:37.020Z,83.63
2022-10-12T21:00:03.882Z,83.29
2022-10-12T21:02:30.284Z,83.30
2022-10-12T21:04:56.702Z,83.23
2022-10-12T21:07:23.127Z,83.82
2022-10-12T21:09:51.109Z,83.96
2022-10-12T21:12:17.657Z,83.74
2022-10-12T21:14:44.130Z,83.50
2022-10-12T21:17:10.501Z,83.88
2022-10-12T21:19:36.902Z,83.37
2022-10-12T21:22:03.337Z,83.88
2022-10-12T21:24:29.715Z,83.49
2022-10-12T21:26:56.078Z,83.98
2022-10-12T21:29:22.573Z,83.71
2022-10-12T21:31:48.966Z,83.83
2022-10-12T21:34:15.560Z,83.42
2022-10-12T21:36:41.930Z,83.89
2022-10-12T21:39:11.267Z,83.23
2022-10-12T21:41:37.969Z,83.42
2022-10-12T21:44:04.626Z,83.96
2022-10-12T21:46:32.621Z,83.92
2022-10-12T21:48:59.967Z,84.30
2022-10-12T21:51:27.114Z,84.20
2022-10-12T21:53:53.830Z,83.84
2022-10-12T21:56:22.059Z,83.85
2022-10-12T21:58:49.291Z,84.02
2022-10-12T22:01:17.152Z,84.14
2022-10-12T22:03:44.242Z,84.12
2022-10-12T22:06:18.123Z,83.96
2022-10-12T22:08:45.200Z,84.04
2022-10-12T22:11:12.690Z,83.84
2022-10-12T22:13:39.096Z,83.41
2022-10-12T22:16:09.574Z,83.50
2022-10-12T22:18:36.066Z,83.66
2022-10-12T22:21:03.790Z,84.08
2022-10-12T22:23:30.334Z,83.68
2022-10-12T22:26:04.255Z,84.29
2022-10-12T22:28:30.799Z,83.74
2022-10-12T22:30:57.231Z,83.58
2022-10-12T22:33:23.993Z,83.82
2022-10-12T22:35:54.061Z,83.50
2022-10-12T22:38:20.915Z,83.39
2022-10-12T22:40:54.198Z,83.39
2022-10-12T22:43:20.564Z,83.89
2022-10-12T22:45:46.950Z,83.77
2022-10-12T22:48:13.408Z,84.06
2022-10-12T22:50:39.804Z,84.02
2022-10-12T22:53:06.170Z,83.54
2022-10-12T22:55:32.547Z,83.47
2022-10-12T22:57:58.933Z,83.46
2022-10-12T23:00:25.394Z,84.26
2022-10-12T23:02:51.796Z,84.44
2022-10-12T23:05:18.184Z,84.20
2022-10-12T23:07:44.559Z,84.20
2022-10-12T23:10:10.935Z,84.22
2022-10-12T23:12:37.324Z,84.10
2022-10-12T23:15:03.918Z,84.37
2022-10-12T23:17:30.315Z,84.19
2022-10-12T23:19:56.668Z,83.83
2022-10-12T23:22:23.112Z,83.70
2022-10-12T23:24:49.498Z,83.77
2022-10-12T23:27:15.930Z,84.05
2022-10-12T23:29:42.353Z,83.51
2022-10-12T23:32:08.756Z,83.70
2022-10-12T23:34:35.130Z,83.77
2022-10-12T23:37:01.512Z,83.40
2022-10-12T23:39:27.873Z,83.71
2022-10-12T23:41:54.285Z,83.33
2022-10-12T23:44:20.845Z,83.33
2022-10-12T23:46:47.243Z,83.52
2022-10-12T23:49:13.781Z,83.71
2022-10-12T23:51:40.154Z,83.79
2022-10-12T23:54:06.529Z,83.72
2022-10-12T23:56:32.964Z,83.49
2022-10-12T23:59:00.363Z,83.61
